createdAt,value
2023-03-11T00:03:57.890Z,97364.20
2023-03-11T00:09:07.610Z,97354.00
2023-03-11T00:14:17.349Z,97354.80
2023-03-11T00:19:27.021Z,97349.00
2023-03-11T00:24:37.770Z,97336.00
2023-03-11T00:29:47.634Z,97332.20
2023-03-11T00:34:57.303Z,97330.80
2023-03-11T00:40:09.243Z,97346.00
2023-03-11T00:45:19.333Z,97315.00
2023-03-11T00:50:32.533Z,97307.00
2023-03-11T00:55:42.547Z,97317.60
2023-03-11T01:00:52.178Z,97308.40
2023-03-11T01:06:01.845Z,97304.80
2023-03-11T01:11:12.536Z,97290.40
2023-03-11T01:16:22.815Z,97285.60
2023-03-11T01:21:32.479Z,97266.20
2023-03-11T01:26:42.154Z,97275.60
2023-03-11T01:31:51.945Z,97272.20
2023-03-11T01:37:01.810Z,97268.40
2023-03-11T01:42:12.292Z,97258.40
2023-03-11T01:47:44.011Z,97253.20
2023-03-11T01:52:54.842Z,97248.20
2023-03-11T01:58:07.602Z,97242.40
2023-03-11T02:03:24.382Z,97238.00
2023-03-11T02:08:35.509Z,97227.60
2023-03-11T02:13:46.957Z,97231.20
2023-03-11T02:18:57.156Z,97229.40
2023-03-11T02:24:16.038Z,97255.20
2023-03-11T02:29:28.837Z,97244.20
2023-03-11T02:34:41.292Z,97244.00
2023-03-11T02:39:53.804Z,97241.60
2023-03-11T02:45:10.863Z,97238.20
2023-03-11T02:50:22.418Z,97245.80
2023-03-11T02:55:32.302Z,97244.20
2023-03-11T03:00:41.997Z,97241.60
2023-03-11T03:05:51.838Z,97236.80
2023-03-11T03:11:01.491Z,97241.60
2023-03-11T03:16:12.241Z,97242.60
2023-03-11T03:21:22.022Z,97235.40
2023-03-11T03:26:31.641Z,97255.00
2023-03-11T03:31:41.350Z,97265.60
2023-03-11T03:36:50.974Z,97271.00
2023-03-11T03:42:00.936Z,97270.60
2023-03-11T03:47:10.934Z,97266.40
2023-03-11T03:52:20.554Z,97264.40
2023-03-11T03:57:31.760Z,97274.40
2023-03-11T04:02:41.468Z,97268.60
2023-03-11T04:07:51.126Z,97271.20
2023-03-11T04:13:00.912Z,97274.20
2023-03-11T04:18:11.068Z,97280.80
2023-03-11T04:23:20.653Z,97289.20
2023-03-11T04:28:30.653Z,97285.60
2023-03-11T04:33:40.490Z,97290.40
2023-03-11T04:38:50.590Z,97290.00
2023-03-11T04:44:00.508Z,97298.00
2023-03-11T04:49:10.613Z,97289.40
2023-03-11T04:54:20.377Z,97291.60
2023-03-11T04:59:31.430Z,97305.20
2023-03-11T05:04:41.390Z,97307.20
2023-03-11T05:09:51.138Z,97306.00
2023-03-11T05:15:00.794Z,97314.40
2023-03-11T05:20:15.098Z,97310.80
2023-03-11T05:25:26.188Z,97306.20
2023-03-11T05:30:35.772Z,97312.00
2023-03-11T05:35:45.648Z,97330.80
2023-03-11T05:40:55.412Z,97329.60
2023-03-11T05:46:05.704Z,97341.20
2023-03-11T05:51:16.488Z,97340.20
2023-03-11T05:56:27.052Z,97341.80
2023-03-11T06:01:36.928Z,97338.60
2023-03-11T06:06:47.677Z,97352.00
2023-03-11T06:11:57.289Z,97364.60
2023-03-11T06:17:07.078Z,97376.20
2023-03-11T06:22:16.991Z,97389.60
2023-03-11T06:27:26.780Z,97396.80
2023-03-11T06:32:37.519Z,97415.60
2023-03-11T06:37:47.212Z,97422.40
2023-03-11T06:42:56.934Z,97432.60
2023-03-11T06:48:06.951Z,97442.80
2023-03-11T06:53:16.814Z,97449.60
2023-03-11T06:58:26.699Z,97455.80
2023-03-11T07:03:36.494Z,97462.60
2023-03-11T07:08:47.365Z,97477.40
2023-03-11T07:13:58.047Z,97492.20
2023-03-11T07:19:07.908Z,97511.40
2023-03-11T07:24:18.175Z,97525.20
2023-03-11T07:29:28.085Z,97539.80
2023-03-11T07:34:37.975Z,97548.00
2023-03-11T07:39:48.177Z,97547.60
2023-03-11T07:44:58.404Z,97568.60
2023-03-11T07:50:08.743Z,97575.60
2023-03-11T07:55:18.406Z,97570.80
2023-03-11T08:00:28.722Z,97566.00
2023-03-11T08:05:40.123Z,97587.40
2023-03-11T08:10:49.841Z,97606.00
2023-03-11T08:15:59.679Z,97609.60
2023-03-11T08:21:14.101Z,97627.20
2023-03-11T08:26:25.316Z,97628.40
2023-03-11T08:31:37.102Z,97644.60
2023-03-11T08:36:47.433Z,97647.00
2023-03-11T08:41:57.438Z,97665.40
2023-03-11T08:47:07.613Z,97674.40
2023-03-11T08:52:17.422Z,97694.00
2023-03-11T08:57:27.220Z,97700.00
2023-03-11T09:02:36.797Z,97704.20
2023-03-11T09:07:47.018Z,97720.20
2023-03-11T09:12:56.752Z,97733.20
2023-03-11T09:18:06.588Z,97744.40
2023-03-11T09:23:18.971Z,97750.40
2023-03-11T09:28:28.694Z,97760.40
2023-03-11T09:33:43.114Z,97767.60
2023-03-11T09:38:53.132Z,97796.40
2023-03-11T09:44:20.339Z,97796.00
2023-03-11T09:49:47.822Z,97807.80
2023-03-11T09:54:59.732Z,97815.40
2023-03-11T10:00:19.562Z,97825.40
2023-03-11T10:05:33.102Z,97834.60
2023-03-11T10:10:52.971Z,97851.00
2023-03-11T10:16:17.428Z,97860.20
2023-03-11T10:21:43.369Z,97875.80
2023-03-11T10:27:00.717Z,97892.00
2023-03-11T10:32:21.219Z,97902.40
2023-03-11T10:37:49.272Z,97915.80
2023-03-11T10:43:04.813Z,97925.20
2023-03-11T10:48:18.095Z,97931.80
2023-03-11T10:53:27.851Z,97944.60
2023-03-11T10:58:37.513Z,97953.80
2023-03-11T11:03:51.722Z,97962.80
2023-03-11T11:09:23.661Z,97969.60
2023-03-11T11:14:50.426Z,97980.60
2023-03-11T11:20:13.241Z,97983.40
2023-03-11T11:25:38.865Z,97993.40
2023-03-11T11:31:04.312Z,97997.60
2023-03-11T11:36:19.721Z,98006.80
2023-03-11T11:41:33.647Z,98024.60
2023-03-11T11:46:48.124Z,98028.60
2023-03-11T11:52:07.244Z,98043.60
2023-03-11T11:57:19.345Z,98055.80
2023-03-11T12:02:54.982Z,98058.40
2023-03-11T12:08:19.093Z,98068.80
2023-03-11T12:13:52.289Z,98079.80
2023-03-11T12:19:10.434Z,98082.00
2023-03-11T12:24:45.784Z,98103.40
2023-03-11T12:30:01.871Z,98112.80
2023-03-11T12:35:28.026Z,98117.20
2023-03-11T12:41:01.998Z,98126.80
2023-03-11T12:46:14.604Z,98143.80
2023-03-11T12:52:01.601Z,98144.20
2023-03-11T12:57:36.329Z,98167.60
2023-03-11T13:03:26.744Z,98176.40
2023-03-11T13:08:50.014Z,98192.00
2023-03-11T13:14:29.289Z,98194.00
2023-03-11T13:20:00.223Z,98211.80
2023-03-11T13:25:33.546Z,98234.00
2023-03-11T13:30:57.032Z,98246.20
2023-03-11T13:36:38.227Z,98254.60
2023-03-11T13:41:49.264Z,98258.80
2023-03-11T13:47:07.457Z,98279.20
2023-03-11T13:52:25.831Z,98287.40
2023-03-11T13:57:38.120Z,98292.20
2023-03-11T14:02:55.524Z,98296.80
2023-03-11T14:08:27.182Z,98314.00
2023-03-11T14:13:43.337Z,98331.00
2023-03-11T14:19:05.519Z,98336.80
2023-03-11T14:24:24.733Z,98347.00
2023-03-11T14:29:38.341Z,98357.40
2023-03-11T14:34:48.333Z,98370.80
2023-03-11T14:39:58.373Z,98377.80
2023-03-11T14:45:16.292Z,98386.20
2023-03-11T14:50:29.722Z,98392.60
2023-03-11T14:55:44.798Z,98414.00
2023-03-11T15:01:01.642Z,98411.20
2023-03-11T15:06:17.622Z,98418.80
2023-03-11T15:11:29.036Z,98434.40
2023-03-11T15:16:40.725Z,98436.60
2023-03-11T15:21:55.530Z,98441.40
2023-03-11T15:27:10.217Z,98452.20
2023-03-11T15:32:44.946Z,98448.60
2023-03-11T15:38:21.233Z,98467.80
2023-03-11T15:43:34.838Z,98472.80
2023-03-11T15:48:46.149Z,98488.60
2023-03-11T15:53:56.029Z,98498.00
2023-03-11T15:59:05.742Z,98511.40
2023-03-11T16:04:22.157Z,98514.00
2023-03-11T16:09:33.281Z,98530.60
2023-03-11T16:14:42.855Z,98533.40
2023-03-11T16:19:52.767Z,98556.20
2023-03-11T16:25:05.127Z,98575.00
2023-03-11T16:30:18.845Z,98582.60
2023-03-11T16:35:28.964Z,98585.80
2023-03-11T16:40:38.739Z,98605.40
2023-03-11T16:45:48.733Z,98612.40
2023-03-11T16:50:59.191Z,98617.80
2023-03-11T16:56:10.389Z,98627.00
2023-03-11T17:01:22.062Z,98629.20
2023-03-11T17:06:31.997Z,98642.20
2023-03-11T17:11:42.148Z,98656.00
2023-03-11T17:16:51.936Z,98658.60
2023-03-11T17:22:01.792Z,98665.40
2023-03-11T17:27:11.708Z,98675.00
2023-03-11T17:32:21.784Z,98673.40
2023-03-11T17:37:32.021Z,98692.60
2023-03-11T17:42:43.705Z,98694.80
2023-03-11T17:47:53.385Z,98700.80
2023-03-11T17:53:03.972Z,98707.40
2023-03-11T17:58:13.753Z,98713.80
2023-03-11T18:03:23.588Z,98719.60
2023-03-11T18:08:34.115Z,98714.40
2023-03-11T18:13:44.543Z,98729.40
2023-03-11T18:18:55.269Z,98734.00
2023-03-11T18:24:05.802Z,98735.40
2023-03-11T18:29:15.362Z,98742.40
2023-03-11T18:34:25.248Z,98752.20
2023-03-11T18:39:35.619Z,98762.40
2023-03-11T18:44:45.672Z,98769.40
2023-03-11T18:49:55.982Z,98767.80
2023-03-11T18:55:06.041Z,98769.20
2023-03-11T19:00:22.844Z,98775.20
2023-03-11T19:05:32.589Z,98776.40
2023-03-11T19:10:44.113Z,98776.00
2023-03-11T19:15:54.779Z,98789.80
2023-03-11T19:21:07.326Z,98794.40
2023-03-11T19:26:17.475Z,98789.60
2023-03-11T19:31:27.186Z,98797.80
2023-03-11T19:36:37.165Z,98796.00
2023-03-11T19:41:47.060Z,98806.20
2023-03-11T19:46:57.056Z,98817.60
2023-03-11T19:52:10.018Z,98817.60
2023-03-11T19:57:20.075Z,98818.40
2023-03-11T20:02:30.131Z,98822.20
2023-03-11T20:07:40.041Z,98825.60
2023-03-11T20:13:01.790Z,98826.80
2023-03-11T20:18:12.810Z,98835.00
2023-03-11T20:23:22.547Z,98841.20
2023-03-11T20:28:32.364Z,98841.40
2023-03-11T20:33:42.642Z,98837.60
2023-03-11T20:38:53.062Z,98835.80
2023-03-11T20:44:02.714Z,98840.20
2023-03-11T20:49:12.564Z,98842.60
2023-03-11T20:54:22.671Z,98831.60
2023-03-11T20:59:32.450Z,98838.00
2023-03-11T21:04:44.341Z,98838.80
2023-03-11T21:09:55.389Z,98836.60
2023-03-11T21:15:05.642Z,98840.20
2023-03-11T21:20:17.026Z,98842.00
2023-03-11T21:25:26.798Z,98838.60
2023-03-11T21:30:36.860Z,98833.00
2023-03-11T21:35:46.460Z,98831.60
2023-03-11T21:41:05.966Z,98819.40
2023-03-11T21:46:18.863Z,98823.60
2023-03-11T21:51:30.059Z,98831.20
2023-03-11T21:56:39.776Z,98828.40
2023-03-11T22:01:49.907Z,98828.20
2023-03-11T22:07:00.115Z,98835.20
2023-03-11T22:12:11.392Z,98840.40
2023-03-11T22:17:21.161Z,98832.80
2023-03-11T22:22:31.246Z,98814.60
2023-03-11T22:27:41.326Z,98816.00
2023-03-11T22:32:51.345Z,98816.80
2023-03-11T22:38:01.248Z,98815.00
2023-03-11T22:43:10.805Z,98811.60
2023-03-11T22:48:20.440Z,98811.40
2023-03-11T22:53:30.242Z,98808.20
2023-03-11T22:58:40.448Z,98803.20
2023-03-11T23:03:50.423Z,98802.40
2023-03-11T23:09:00.117Z,98795.80
2023-03-11T23:14:10.150Z,98804.40
2023-03-11T23:19:19.928Z,98795.40
2023-03-11T23:24:30.246Z,98799.60
2023-03-11T23:29:39.996Z,98800.40
2023-03-11T23:34:50.037Z,98800.20
2023-03-11T23:40:00.181Z,98794.20
2023-03-11T23:45:12.640Z,98785.20
2023-03-11T23:50:22.737Z,98787.60
2023-03-11T23:55:32.473Z,98791.40
